Photometre #844[NE_1.6_Dp] Rhyl_MO AOT

File : 20210610_844.hum

10/06/2021,05:02:06,TEMP=16.0,BA=5.52,STAT.A,ExtBa=12.70
10/06/2021,05:06:25,TEMP=16.1,BA=5.52,STAT.D,ExtBa=12.60
10/06/2021,05:08:27,TEMP=16.6,BA=5.52,STAT.A,ExtBa=12.60
10/06/2021,05:12:25,TEMP=16.4,BA=5.44,STAT.A,ExtBa=12.60
10/06/2021,05:15:25,TEMP=16.6,BA=5.44,STAT.D,ExtBa=12.50
10/06/2021,05:18:25,TEMP=16.7,BA=5.44,STAT.D,ExtBa=12.50
10/06/2021,05:20:27,TEMP=17.0,BA=5.44,STAT.A,ExtBa=12.50
10/06/2021,05:26:59,TEMP=16.6,BA=5.44,STAT.D,ExtBa=12.60
10/06/2021,05:29:01,TEMP=16.9,BA=5.44,STAT.A,ExtBa=12.50
10/06/2021,05:36:05,TEMP=16.2,BA=5.44,STAT.A,ExtBa=12.60
10/06/2021,05:47:45,TEMP=16.0,BA=5.56,STAT.B,ExtBa=12.60
10/06/2021,05:53:15,TEMP=16.1,BA=5.56,STAT.A,ExtBa=12.60
10/06/2021,05:59:21,TEMP=16.0,BA=5.56,STAT.A,ExtBa=12.60
10/06/2021,06:06:10,TEMP=16.1,BA=5.48,STAT.A,ExtBa=12.60
10/06/2021,06:13:48,TEMP=16.1,BA=5.56,STAT.A,ExtBa=12.60
10/06/2021,06:22:28,TEMP=16.2,BA=5.60,STAT.C,ExtBa=12.60
10/06/2021,06:32:24,TEMP=16.3,BA=5.60,STAT.A,ExtBa=12.60
10/06/2021,06:43:53,TEMP=16.3,BA=5.60,STAT.A,ExtBa=12.60
10/06/2021,06:57:24,TEMP=16.3,BA=5.60,STAT.A,ExtBa=12.60
10/06/2021,07:09:25,TEMP=16.4,BA=5.60,STAT.D,ExtBa=12.60
10/06/2021,07:13:34,TEMP=16.6,BA=5.56,STAT.A,ExtBa=12.60
10/06/2021,07:24:25,TEMP=16.7,BA=5.64,STAT.D,ExtBa=12.60
10/06/2021,07:33:24,TEMP=16.8,BA=5.64,STAT.B,ExtBa=12.60
10/06/2021,07:45:25,TEMP=17.1,BA=5.64,STAT.D,ExtBa=12.60
10/06/2021,07:57:25,TEMP=17.4,BA=5.64,STAT.D,ExtBa=12.60
10/06/2021,08:09:25,TEMP=17.9,BA=5.64,STAT.D,ExtBa=12.70
10/06/2021,08:13:57,TEMP=18.1,BA=5.60,STAT.B,ExtBa=12.70
10/06/2021,08:27:26,TEMP=18.5,BA=5.68,STAT.D,ExtBa=12.70
10/06/2021,08:29:27,TEMP=19.0,BA=5.68,STAT.D,ExtBa=12.70
10/06/2021,08:42:25,TEMP=19.5,BA=5.68,STAT.D,ExtBa=12.80
10/06/2021,08:44:27,TEMP=20.1,BA=5.68,STAT.D,ExtBa=12.80
10/06/2021,08:48:25,TEMP=20.2,BA=5.68,STAT.D,ExtBa=12.90
10/06/2021,08:58:44,TEMP=20.9,BA=5.64,STAT.D,ExtBa=13.00
10/06/2021,09:12:26,TEMP=21.2,BA=5.68,STAT.D,ExtBa=13.20
10/06/2021,09:14:29,TEMP=21.8,BA=5.68,STAT.F,ExtBa=13.10
10/06/2021,09:38:48,TEMP=24.0,BA=5.64,STAT.D,ExtBa=12.60
10/06/2021,09:43:44,TEMP=23.1,BA=5.64,STAT.D,ExtBa=13.00
10/06/2021,09:48:26,TEMP=23.0,BA=5.64,STAT.D,ExtBa=13.20
10/06/2021,09:51:26,TEMP=23.2,BA=5.64,STAT.D,ExtBa=13.00
10/06/2021,09:54:26,TEMP=23.2,BA=5.64,STAT.D,ExtBa=13.20
10/06/2021,09:57:26,TEMP=23.3,BA=5.64,STAT.D,ExtBa=13.30
10/06/2021,09:59:28,TEMP=23.6,BA=5.64,STAT.D,ExtBa=13.20
10/06/2021,10:03:26,TEMP=23.4,BA=5.64,STAT.D,ExtBa=13.20
10/06/2021,10:13:46,TEMP=23.0,BA=5.68,STAT.F,ExtBa=13.50
10/06/2021,10:35:17,TEMP=23.0,BA=5.64,STAT.D,ExtBa=13.30
10/06/2021,10:39:26,TEMP=23.3,BA=5.64,STAT.D,ExtBa=13.40
10/06/2021,10:42:26,TEMP=23.6,BA=5.64,STAT.D,ExtBa=13.50
10/06/2021,10:44:27,TEMP=24.0,BA=5.64,STAT.D,ExtBa=13.40
10/06/2021,10:48:26,TEMP=24.0,BA=5.64,STAT.D,ExtBa=13.60
10/06/2021,10:51:26,TEMP=24.3,BA=5.64,STAT.D,ExtBa=13.50
10/06/2021,10:54:26,TEMP=24.3,BA=5.64,STAT.D,ExtBa=13.50
10/06/2021,10:57:26,TEMP=24.3,BA=5.64,STAT.D,ExtBa=13.50
10/06/2021,10:59:30,TEMP=24.5,BA=5.64,STAT.D,ExtBa=13.40
10/06/2021,11:03:26,TEMP=24.1,BA=5.64,STAT.D,ExtBa=13.30
10/06/2021,11:13:46,TEMP=23.5,BA=5.68,STAT.F,ExtBa=13.10
10/06/2021,11:27:26,TEMP=23.0,BA=5.68,STAT.D,ExtBa=13.50
10/06/2021,11:29:27,TEMP=23.5,BA=5.68,STAT.D,ExtBa=13.50
10/06/2021,11:33:26,TEMP=23.8,BA=5.64,STAT.D,ExtBa=13.60
10/06/2021,11:36:26,TEMP=24.2,BA=5.64,STAT.D,ExtBa=13.50
10/06/2021,11:39:26,TEMP=24.4,BA=5.64,STAT.D,ExtBa=13.40
10/06/2021,11:42:26,TEMP=24.5,BA=5.64,STAT.D,ExtBa=13.30
10/06/2021,11:44:31,TEMP=24.8,BA=5.64,STAT.D,ExtBa=13.10
10/06/2021,11:57:26,TEMP=23.8,BA=5.68,STAT.D,ExtBa=13.60
10/06/2021,11:59:26,TEMP=24.3,BA=5.68,STAT.D,ExtBa=13.60
10/06/2021,12:03:26,TEMP=24.2,BA=5.64,STAT.D,ExtBa=13.70
10/06/2021,12:06:26,TEMP=24.3,BA=5.64,STAT.D,ExtBa=13.60
10/06/2021,12:09:26,TEMP=24.4,BA=5.64,STAT.D,ExtBa=13.80
10/06/2021,12:12:26,TEMP=24.6,BA=5.64,STAT.D,ExtBa=13.70
10/06/2021,12:14:28,TEMP=24.9,BA=5.64,STAT.F,ExtBa=13.60
10/06/2021,12:31:29,TEMP=26.1,BA=5.64,STAT.D,ExtBa=13.20
10/06/2021,12:36:26,TEMP=25.3,BA=5.64,STAT.D,ExtBa=13.30
10/06/2021,12:39:26,TEMP=25.1,BA=5.64,STAT.D,ExtBa=13.40
10/06/2021,12:42:26,TEMP=25.0,BA=5.64,STAT.D,ExtBa=13.40
10/06/2021,12:44:29,TEMP=25.1,BA=5.64,STAT.D,ExtBa=13.40
10/06/2021,12:54:26,TEMP=24.3,BA=5.68,STAT.D,ExtBa=13.80
10/06/2021,12:57:26,TEMP=24.4,BA=5.68,STAT.D,ExtBa=13.60
10/06/2021,12:59:27,TEMP=24.6,BA=5.68,STAT.D,ExtBa=13.70
10/06/2021,13:03:26,TEMP=24.2,BA=5.64,STAT.D,ExtBa=13.70
10/06/2021,13:06:26,TEMP=24.3,BA=5.64,STAT.D,ExtBa=13.70
10/06/2021,13:09:26,TEMP=24.3,BA=5.64,STAT.D,ExtBa=13.60
10/06/2021,13:12:26,TEMP=24.2,BA=5.64,STAT.D,ExtBa=13.70
10/06/2021,13:14:31,TEMP=24.4,BA=5.64,STAT.F,ExtBa=13.70
10/06/2021,13:30:42,TEMP=24.6,BA=5.60,STAT.D,ExtBa=13.50
10/06/2021,13:36:26,TEMP=24.1,BA=5.60,STAT.D,ExtBa=13.70
10/06/2021,13:39:26,TEMP=24.2,BA=5.60,STAT.D,ExtBa=13.80
10/06/2021,13:42:26,TEMP=24.2,BA=5.60,STAT.D,ExtBa=13.70
10/06/2021,13:44:27,TEMP=24.3,BA=5.60,STAT.D,ExtBa=13.70
10/06/2021,13:48:26,TEMP=23.9,BA=5.60,STAT.D,ExtBa=13.80
10/06/2021,13:51:26,TEMP=23.9,BA=5.64,STAT.D,ExtBa=13.80
10/06/2021,13:54:26,TEMP=23.9,BA=5.64,STAT.D,ExtBa=13.80
10/06/2021,13:57:26,TEMP=23.9,BA=5.64,STAT.D,ExtBa=13.80
10/06/2021,13:59:27,TEMP=24.2,BA=5.64,STAT.D,ExtBa=13.80
10/06/2021,14:03:26,TEMP=23.7,BA=5.64,STAT.D,ExtBa=13.80
10/06/2021,14:06:26,TEMP=23.8,BA=5.64,STAT.D,ExtBa=13.80
10/06/2021,14:09:26,TEMP=23.9,BA=5.64,STAT.D,ExtBa=13.80
10/06/2021,14:12:26,TEMP=23.9,BA=5.64,STAT.D,ExtBa=13.80
10/06/2021,14:14:29,TEMP=24.1,BA=5.64,STAT.F,ExtBa=13.80
10/06/2021,14:31:00,TEMP=23.8,BA=5.64,STAT.D,ExtBa=13.30
10/06/2021,14:36:26,TEMP=23.1,BA=5.64,STAT.D,ExtBa=13.60
10/06/2021,14:39:26,TEMP=23.2,BA=5.64,STAT.D,ExtBa=13.70
10/06/2021,14:42:26,TEMP=23.3,BA=5.64,STAT.D,ExtBa=13.70
10/06/2021,14:44:28,TEMP=23.6,BA=5.64,STAT.D,ExtBa=13.70
10/06/2021,14:48:26,TEMP=23.1,BA=5.64,STAT.D,ExtBa=13.70
10/06/2021,14:51:26,TEMP=23.2,BA=5.64,STAT.D,ExtBa=13.70
10/06/2021,14:54:26,TEMP=23.0,BA=5.64,STAT.D,ExtBa=13.60
10/06/2021,14:57:26,TEMP=23.0,BA=5.64,STAT.D,ExtBa=13.70
10/06/2021,14:59:27,TEMP=23.3,BA=5.64,STAT.D,ExtBa=13.70
10/06/2021,15:03:26,TEMP=23.2,BA=5.64,STAT.D,ExtBa=13.60
10/06/2021,15:06:26,TEMP=23.4,BA=5.64,STAT.D,ExtBa=13.70
10/06/2021,15:09:26,TEMP=23.4,BA=5.64,STAT.D,ExtBa=13.50
10/06/2021,15:12:26,TEMP=23.3,BA=5.60,STAT.D,ExtBa=13.50
10/06/2021,15:14:29,TEMP=23.5,BA=5.60,STAT.F,ExtBa=13.30
10/06/2021,15:28:43,TEMP=22.6,BA=5.60,STAT.D,ExtBa=13.10
10/06/2021,15:33:25,TEMP=22.8,BA=5.60,STAT.D,ExtBa=13.50
10/06/2021,15:36:25,TEMP=23.4,BA=5.60,STAT.D,ExtBa=13.60
10/06/2021,15:39:25,TEMP=23.8,BA=5.60,STAT.D,ExtBa=13.50
10/06/2021,15:42:26,TEMP=23.9,BA=5.60,STAT.D,ExtBa=13.30
10/06/2021,15:44:29,TEMP=24.2,BA=5.60,STAT.D,ExtBa=13.20
10/06/2021,15:54:25,TEMP=23.5,BA=5.64,STAT.D,ExtBa=13.50
10/06/2021,15:57:25,TEMP=23.6,BA=5.64,STAT.D,ExtBa=13.20
10/06/2021,15:59:26,TEMP=23.7,BA=5.64,STAT.D,ExtBa=13.20
10/06/2021,16:09:25,TEMP=22.4,BA=5.60,STAT.D,ExtBa=13.30
10/06/2021,16:13:33,TEMP=22.5,BA=5.64,STAT.B,ExtBa=13.20
10/06/2021,16:24:25,TEMP=22.5,BA=5.60,STAT.D,ExtBa=12.90
10/06/2021,16:27:25,TEMP=22.5,BA=5.60,STAT.D,ExtBa=12.90
10/06/2021,16:39:25,TEMP=21.7,BA=5.64,STAT.D,ExtBa=13.10
10/06/2021,16:42:25,TEMP=22.1,BA=5.60,STAT.D,ExtBa=13.00
10/06/2021,16:45:25,TEMP=22.2,BA=5.60,STAT.D,ExtBa=13.00
10/06/2021,16:48:25,TEMP=22.3,BA=5.60,STAT.D,ExtBa=13.00
10/06/2021,16:51:25,TEMP=22.2,BA=5.60,STAT.D,ExtBa=12.90
10/06/2021,16:54:05,TEMP=22.2,BA=5.60,STAT.B,ExtBa=12.80
10/06/2021,17:06:25,TEMP=21.7,BA=5.64,STAT.D,ExtBa=13.00
10/06/2021,17:09:25,TEMP=22.0,BA=5.64,STAT.D,ExtBa=13.00
10/06/2021,17:12:25,TEMP=22.1,BA=5.60,STAT.D,ExtBa=12.90
10/06/2021,17:14:29,TEMP=22.3,BA=5.60,STAT.A,ExtBa=12.90
10/06/2021,17:18:25,TEMP=21.9,BA=5.60,STAT.D,ExtBa=12.90
10/06/2021,17:21:25,TEMP=21.9,BA=5.60,STAT.D,ExtBa=12.90
10/06/2021,17:24:25,TEMP=21.8,BA=5.60,STAT.D,ExtBa=12.80
10/06/2021,17:27:25,TEMP=21.8,BA=5.60,STAT.D,ExtBa=12.80
10/06/2021,17:30:04,TEMP=21.7,BA=5.60,STAT.A,ExtBa=12.80
10/06/2021,17:33:25,TEMP=21.5,BA=5.60,STAT.D,ExtBa=12.80
10/06/2021,17:36:25,TEMP=21.5,BA=5.60,STAT.D,ExtBa=12.80
10/06/2021,17:39:25,TEMP=21.3,BA=5.60,STAT.D,ExtBa=12.70
10/06/2021,17:42:25,TEMP=21.3,BA=5.60,STAT.D,ExtBa=12.70
10/06/2021,17:44:26,TEMP=21.5,BA=5.60,STAT.A,ExtBa=12.70
10/06/2021,17:55:04,TEMP=20.3,BA=5.64,STAT.A,ExtBa=12.80
10/06/2021,18:05:00,TEMP=19.8,BA=5.64,STAT.C,ExtBa=12.80
10/06/2021,18:13:40,TEMP=19.5,BA=5.64,STAT.A,ExtBa=12.80
10/06/2021,18:21:18,TEMP=19.5,BA=5.64,STAT.A,ExtBa=12.80
10/06/2021,18:24:24,TEMP=19.7,BA=5.64,STAT.D,ExtBa=12.70
10/06/2021,18:28:07,TEMP=19.6,BA=5.64,STAT.A,ExtBa=12.70
10/06/2021,18:30:24,TEMP=19.8,BA=5.60,STAT.D,ExtBa=12.70
10/06/2021,18:34:13,TEMP=19.6,BA=5.60,STAT.A,ExtBa=12.70
10/06/2021,18:39:25,TEMP=19.7,BA=5.60,STAT.D,ExtBa=12.80
10/06/2021,18:41:34,TEMP=20.0,BA=5.52,STAT.B,ExtBa=12.70
10/06/2021,18:51:23,TEMP=19.1,BA=5.60,STAT.A,ExtBa=12.80
10/06/2021,19:00:47,TEMP=18.8,BA=5.60,STAT.A,ExtBa=12.80
10/06/2021,19:08:32,TEMP=18.7,BA=5.60,STAT.A,ExtBa=12.80
10/06/2021,19:15:03,TEMP=18.8,BA=5.52,STAT.A,ExtBa=12.80
10/06/2021,19:18:25,TEMP=19.1,BA=5.52,STAT.D,ExtBa=12.70
10/06/2021,19:20:36,TEMP=19.4,BA=5.52,STAT.A,ExtBa=12.70
10/06/2021,19:24:25,TEMP=19.2,BA=5.52,STAT.D,ExtBa=12.70
10/06/2021,19:26:27,TEMP=19.6,BA=5.52,STAT.A,ExtBa=12.70